Terminal Aerodrome Forecast
Issued by NWS

Home | Current Version | Previous Version | Text Only | Print | Product List | Glossary On
Versions: 1 2 3 4 5 6 7 8 9 10 11 12 13 14 15
000
FTPA31 PHFO 271135
TAFHMK
TAF
PHMK 271135Z 2712/2812 VRB03KT P6SM SCT030 SCT250
     FM272200 06010G20KT P6SM SCT030 SCT250
     FM280600 06008KT P6SM SCT030=

USA.gov is the U.S. government's official web portal to all federal, state and local government web resources and services.